Terminal Aerodrome Forecast
Issued by NWS

Home | Current Version | Previous Version | Text Only | Print | Product List | Glossary On
Versions: 1 2 3 4 5 6 7 8 9 10 11 12
000
FTUS44 KCRP 292300
TAFLRD
TAF
KLRD 292322Z 3000/3024 16016G21KT P6SM SKC
     FM300500 16013KT P6SM FEW014
     FM301100 14006KT 5SM BR BKN012
     FM301500 14011KT P6SM SCT015 SCT250=

USA.gov is the U.S. government's official web portal to all federal, state and local government web resources and services.